Time;durP1;ratioP1;P1;durP2;ratioP2;P2;SDS_P1;SDS_P2;PMS_P1;PMS_P2;Temp;Humidity;BMP_temperature;BMP_pressure;BME280_temperature;BME280_humidity;BME280_pressure;Samples;Min_cycle;Max_cycle;Signal;HPM_P1;HPM_P2
2022/06/23 00:00:33;;;;;;;2.47;2.10;;;19.90;82.30;;;;;;5072692;28;20590;-65
2022/06/23 00:03:00;;;;;;;3.75;2.20;;;19.80;82.30;;;;;;5072935;28;20062;-65
2022/06/23 00:05:34;;;;;;;6.60;2.50;;;19.80;82.50;;;;;;5071879;28;20404;-65
2022/06/23 00:08:00;;;;;;;3.00;2.20;;;19.80;82.70;;;;;;5061008;28;20479;-65
2022/06/23 00:10:40;;;;;;;4.30;2.17;;;19.70;82.90;;;;;;5072716;28;20044;-65
2022/06/23 00:13:26;;;;;;;3.50;2.28;;;19.70;83.10;;;;;;5072009;28;20055;-65
2022/06/23 00:15:54;;;;;;;4.85;2.80;;;19.70;83.30;;;;;;5063306;28;20127;-66
2022/06/23 00:18:23;;;;;;;4.65;2.70;;;19.60;83.60;;;;;;5055829;28;20036;-65
2022/06/23 00:21:03;;;;;;;4.55;2.65;;;19.60;83.90;;;;;;5054122;28;20122;-65
2022/06/23 00:23:32;;;;;;;4.32;2.65;;;19.50;84.00;;;;;;5065260;28;20382;-65
2022/06/23 00:26:07;;;;;;;4.22;2.70;;;19.50;84.40;;;;;;5054335;28;20511;-66
2022/06/23 00:28:55;;;;;;;4.47;2.90;;;19.50;84.70;;;;;;5072890;28;20115;-65
2022/06/23 00:31:32;;;;;;;3.55;2.95;;;19.50;85.00;;;;;;5051411;28;20450;-65
2022/06/23 00:34:00;;;;;;;4.05;2.90;;;19.40;85.00;;;;;;5066261;28;20408;-66
2022/06/23 00:36:46;;;;;;;4.90;3.38;;;19.40;85.00;;;;;;5061958;28;20492;-65
2022/06/23 00:39:35;;;;;;;3.72;2.75;;;19.40;85.20;;;;;;5057537;28;20369;-65
2022/06/23 00:42:05;;;;;;;4.82;3.17;;;19.40;85.40;;;;;;5058691;28;20412;-65
2022/06/23 00:45:04;;;;;;;4.85;3.45;;;19.30;85.60;;;;;;5071376;28;20021;-66
2022/06/23 00:47:43;;;;;;;6.60;3.05;;;19.30;85.80;;;;;;5054016;28;20036;-65
2022/06/23 00:50:24;;;;;;;7.15;3.13;;;19.30;86.10;;;;;;5060915;28;20044;-65
2022/06/23 00:52:59;;;;;;;4.28;2.92;;;19.20;86.30;;;;;;5060101;28;20029;-65
2022/06/23 00:55:34;;;;;;;3.90;3.22;;;19.20;86.60;;;;;;5070396;28;20547;-65
2022/06/23 00:58:26;;;;;;;5.38;3.78;;;19.20;86.70;;;;;;5072052;28;20036;-65
2022/06/23 01:00:59;;;;;;;4.80;3.80;;;19.20;86.80;;;;;;5053156;28;20492;-65
2022/06/23 01:03:39;;;;;;;11.75;4.55;;;19.10;86.90;;;;;;5070224;28;20488;-65
2022/06/23 01:06:12;;;;;;;6.00;4.07;;;19.10;87.00;;;;;;5070548;28;20036;-65
2022/06/23 01:08:49;;;;;;;5.10;3.70;;;19.20;87.20;;;;;;5070668;28;20112;-65
2022/06/23 01:11:33;;;;;;;5.70;4.15;;;19.10;87.30;;;;;;5070743;28;20107;-65
2022/06/23 01:14:14;;;;;;;5.10;4.03;;;19.10;87.40;;;;;;5061175;28;20101;-65
2022/06/23 01:17:13;;;;;;;9.10;4.38;;;19.00;87.50;;;;;;5067296;28;20084;-65
2022/06/23 01:20:11;;;;;;;6.68;4.72;;;19.00;87.50;;;;;;5064503;28;20130;-65
2022/06/23 01:22:49;;;;;;;9.45;4.70;;;19.00;87.60;;;;;;5070832;28;20111;-65
2022/06/23 01:25:52;;;;;;;6.90;4.68;;;19.00;87.70;;;;;;5059370;28;20021;-65
2022/06/23 01:28:30;;;;;;;7.57;4.80;;;18.90;87.80;;;;;;5070720;28;20111;-65
2022/06/23 01:31:14;;;;;;;7.38;4.10;;;18.90;87.90;;;;;;5069713;28;20119;-65
2022/06/23 01:33:50;;;;;;;6.03;3.92;;;18.90;88.10;;;;;;5070482;28;20107;-65
2022/06/23 01:36:30;;;;;;;4.97;4.03;;;18.90;88.20;;;;;;5063703;28;20056;-65
2022/06/23 01:39:16;;;;;;;6.43;4.47;;;18.80;88.20;;;;;;5061605;28;20114;-65
2022/06/23 01:41:42;;;;;;;5.75;4.38;;;18.80;88.30;;;;;;5058105;28;20068;-65
2022/06/23 01:44:13;;;;;;;6.43;4.53;;;18.80;88.40;;;;;;5071130;28;20063;-65
2022/06/23 01:46:42;;;;;;;6.95;4.50;;;18.80;88.50;;;;;;5061426;28;20074;-66
2022/06/23 01:49:28;;;;;;;6.53;4.38;;;18.80;88.60;;;;;;5068098;28;20029;-66
2022/06/23 01:52:15;;;;;;;7.88;5.15;;;18.80;88.60;;;;;;5064755;28;20480;-65
2022/06/23 01:54:42;;;;;;;8.93;4.78;;;18.80;88.60;;;;;;5060563;28;20036;-65
2022/06/23 01:57:30;;;;;;;8.70;4.53;;;18.70;89.20;;;;;;5067612;28;20086;-65
2022/06/23 02:00:18;;;;;;;6.85;4.60;;;18.70;88.70;;;;;;5065166;28;20036;-65
2022/06/23 02:02:52;;;;;;;10.98;4.95;;;18.70;88.80;;;;;;5061349;28;20041;-65
2022/06/23 02:05:44;;;;;;;7.13;4.20;;;18.70;88.90;;;;;;5051708;28;20112;-65
2022/06/23 02:08:29;;;;;;;9.73;5.50;;;18.70;88.90;;;;;;5051455;28;20025;-65
2022/06/23 02:11:14;;;;;;;9.77;5.03;;;18.60;89.00;;;;;;5071681;28;20029;-65
2022/06/23 02:13:50;;;;;;;7.05;4.80;;;18.60;89.00;;;;;;5065071;28;20033;-65
2022/06/23 02:16:44;;;;;;;7.95;4.35;;;18.60;89.10;;;;;;5063750;28;20507;-65
2022/06/23 02:19:23;;;;;;;6.25;4.43;;;18.60;89.20;;;;;;5059959;28;20041;-65
2022/06/23 02:21:51;;;;;;;6.53;4.72;;;18.60;89.30;;;;;;5070839;28;20046;-65
2022/06/23 02:24:32;;;;;;;8.45;4.75;;;18.60;89.40;;;;;;5069836;28;20112;-65
2022/06/23 02:27:05;;;;;;;6.70;4.55;;;18.50;89.50;;;;;;5071574;28;20040;-65
2022/06/23 02:29:50;;;;;;;;;;;18.50;89.70;;;;;;5066517;28;20111;-65
2022/06/23 02:32:39;;;;;;;9.27;5.15;;;18.50;89.30;;;;;;5064476;28;19912;-65
2022/06/23 02:35:23;;;;;;;8.13;4.93;;;18.50;89.50;;;;;;5066639;28;20452;-65
2022/06/23 02:38:07;;;;;;;6.93;4.47;;;18.40;89.60;;;;;;5049934;28;20021;-65
2022/06/23 02:40:47;;;;;;;9.35;5.35;;;18.40;90.00;;;;;;5052894;28;20029;-65
2022/06/23 02:43:27;;;;;;;7.75;5.22;;;18.40;90.00;;;;;;5070424;28;20071;-65
2022/06/23 02:46:11;;;;;;;6.30;4.95;;;18.30;90.10;;;;;;5066830;28;20029;-65
2022/06/23 02:48:52;;;;;;;7.80;5.32;;;18.30;90.10;;;;;;5055774;28;20465;-66
2022/06/23 02:51:42;;;;;;;8.68;5.03;;;18.30;90.10;;;;;;5050804;28;20106;-66
2022/06/23 02:54:26;;;;;;;10.02;4.88;;;18.30;90.30;;;;;;5066619;28;20025;-66
2022/06/23 02:57:07;;;;;;;11.05;5.65;;;18.20;90.00;;;;;;5051859;28;20087;-67
2022/06/23 03:00:00;;;;;;;9.30;5.55;;;18.30;90.00;;;;;;5051212;28;20468;-64
2022/06/23 03:02:34;;;;;;;9.07;5.80;;;18.20;90.00;;;;;;5061437;28;20036;-65
2022/06/23 03:05:26;;;;;;;9.23;5.40;;;18.10;90.00;;;;;;5064306;28;20060;-65
2022/06/23 03:08:11;;;;;;;8.93;5.28;;;18.10;90.10;;;;;;5066142;28;20037;-65
2022/06/23 03:10:42;;;;;;;8.18;4.88;;;18.10;90.10;;;;;;5073643;28;20020;-65
2022/06/23 03:13:10;;;;;;;12.80;5.47;;;18.10;90.20;;;;;;5066994;28;20534;-66
2022/06/23 03:15:48;;;;;;;10.80;5.32;;;18.00;90.20;;;;;;5070590;28;20064;-66
2022/06/23 03:18:50;;;;;;;14.75;5.75;;;18.10;90.30;;;;;;5066679;28;20024;-65
2022/06/23 03:21:23;;;;;;;12.68;6.05;;;18.00;90.40;;;;;;5070796;28;20434;-65
2022/06/23 03:24:04;;;;;;;10.73;5.70;;;18.00;90.40;;;;;;5061405;28;20041;-65
2022/06/23 03:26:35;;;;;;;9.32;5.68;;;18.00;90.50;;;;;;5073745;28;20032;-65
2022/06/23 03:29:31;;;;;;;10.82;6.10;;;17.90;90.60;;;;;;5069307;28;20381;-66
2022/06/23 03:32:33;;;;;;;9.93;5.28;;;18.00;90.70;;;;;;5065771;28;20068;-65
2022/06/23 03:35:32;;;;;;;9.60;5.03;;;18.00;90.80;;;;;;5064908;28;20119;-65
2022/06/23 03:38:02;;;;;;;9.02;5.50;;;17.90;90.90;;;;;;5064950;28;20381;-64
2022/06/23 03:43:53;;;;;;;6.05;4.57;;;17.90;91.00;;;;;;5068213;28;20025;-65
2022/06/23 03:46:26;;;;;;;9.18;4.75;;;17.90;91.10;;;;;;5068598;28;20111;-65
2022/06/23 03:49:08;;;;;;;6.72;4.38;;;17.90;91.00;;;;;;5065470;28;20025;-65
2022/06/23 03:51:55;;;;;;;8.13;4.97;;;17.90;91.20;;;;;;5066904;28;20025;-65
2022/06/23 03:54:23;;;;;;;9.55;4.93;;;17.90;91.10;;;;;;5068913;28;20460;-65
2022/06/23 03:57:12;;;;;;;9.82;4.88;;;17.90;91.10;;;;;;5067260;28;20036;-65
2022/06/23 04:00:22;;;;;;;9.55;5.40;;;17.90;91.20;;;;;;5072747;28;20111;-65
2022/06/23 04:02:59;;;;;;;6.22;4.70;;;17.90;91.30;;;;;;5067641;28;20036;-65
2022/06/23 04:05:38;;;;;;;7.72;5.07;;;17.90;91.50;;;;;;5067901;28;20067;-65
2022/06/23 04:08:04;;;;;;;8.88;5.47;;;17.90;91.70;;;;;;5064571;28;20146;-65
2022/06/23 04:10:36;;;;;;;9.68;5.03;;;17.90;91.70;;;;;;5072266;28;20043;-65
2022/06/23 04:13:16;;;;;;;9.02;5.15;;;17.90;91.90;;;;;;5069588;28;20028;-65
2022/06/23 04:15:43;;;;;;;10.30;4.97;;;17.90;92.00;;;;;;5066548;28;20033;-66
2022/06/23 04:18:19;;;;;;;7.97;4.72;;;17.90;92.10;;;;;;5069993;28;20086;-65
2022/06/23 04:20:54;;;;;;;7.30;4.50;;;17.90;92.30;;;;;;5068507;28;20422;-65
2022/06/23 04:23:28;;;;;;;6.28;4.47;;;17.90;92.30;;;;;;5071377;28;20476;-65
2022/06/23 04:25:56;;;;;;;10.55;5.30;;;17.90;92.40;;;;;;5073580;28;20029;-65
2022/06/23 04:28:31;;;;;;;7.35;5.07;;;17.90;92.40;;;;;;5071948;28;20033;-65
2022/06/23 04:31:00;;;;;;;7.25;5.38;;;17.90;92.60;;;;;;5071181;28;20045;-65
2022/06/23 04:33:27;;;;;;;7.15;4.82;;;17.90;92.60;;;;;;5072677;28;20036;-65
2022/06/23 04:35:56;;;;;;;12.50;5.40;;;18.00;92.70;;;;;;5070781;28;20484;-65
2022/06/23 04:38:43;;;;;;;9.32;5.45;;;17.90;92.80;;;;;;5062792;28;20464;-66
2022/06/23 04:41:21;;;;;;;7.85;5.20;;;18.00;92.90;;;;;;5067885;28;20403;-66
2022/06/23 04:43:52;;;;;;;7.05;4.63;;;18.00;93.00;;;;;;5071548;28;20048;-65
2022/06/23 04:46:26;;;;;;;8.88;5.40;;;18.00;93.10;;;;;;5061927;28;20028;-64
2022/06/23 04:49:14;;;;;;;8.10;5.38;;;18.00;93.20;;;;;;5070279;28;20461;-64
2022/06/23 04:51:50;;;;;;;7.85;5.65;;;18.00;93.20;;;;;;5069805;28;20063;-64
2022/06/23 04:54:26;;;;;;;9.30;5.68;;;18.00;93.30;;;;;;5069574;28;20024;-64
2022/06/23 04:56:55;;;;;;;12.98;6.28;;;18.10;93.50;;;;;;5070100;28;20044;-64
2022/06/23 04:59:36;;;;;;;11.95;6.28;;;18.00;93.60;;;;;;5068603;28;20472;-64
2022/06/23 05:02:31;;;;;;;10.02;6.40;;;18.10;93.80;;;;;;5066408;28;20519;-64
2022/06/23 05:05:22;;;;;;;8.23;5.57;;;18.10;93.90;;;;;;5055476;28;20041;-64
2022/06/23 05:08:07;;;;;;;25.08;6.57;;;18.10;93.90;;;;;;5060059;28;20058;-64
2022/06/23 05:10:51;;;;;;;11.85;6.22;;;18.10;94.10;;;;;;5066908;28;20028;-64
2022/06/23 05:13:21;;;;;;;11.13;5.40;;;18.10;94.20;;;;;;5053750;28;20021;-64
2022/06/23 05:16:05;;;;;;;10.10;5.93;;;18.20;94.20;;;;;;5067539;28;20045;-64
2022/06/23 05:18:44;;;;;;;11.27;6.15;;;18.20;94.30;;;;;;5066077;28;20115;-65
2022/06/23 05:21:22;;;;;;;12.55;7.05;;;18.30;94.50;;;;;;5069370;28;20037;-64
2022/06/23 05:24:06;;;;;;;11.48;6.50;;;18.30;94.50;;;;;;5071464;28;20487;-64
2022/06/23 05:26:45;;;;;;;15.68;6.38;;;18.30;94.60;;;;;;5064010;28;20032;-66
2022/06/23 05:29:19;;;;;;;11.63;6.30;;;18.40;94.30;;;;;;5065707;28;20054;-66
2022/06/23 05:31:50;;;;;;;10.77;7.32;;;18.50;94.20;;;;;;5067940;28;20059;-65
2022/06/23 05:34:29;;;;;;;10.27;6.82;;;18.50;94.40;;;;;;5064997;28;20021;-65
2022/06/23 05:37:27;;;;;;;10.45;6.53;;;18.50;94.60;;;;;;5067038;28;20097;-64
2022/06/23 05:40:11;;;;;;;10.38;7.05;;;18.50;94.60;;;;;;5065823;28;20033;-64
2022/06/23 05:42:43;;;;;;;10.48;6.80;;;18.60;94.80;;;;;;5063551;28;20029;-65
2022/06/23 05:45:23;;;;;;;11.20;7.18;;;18.60;94.90;;;;;;5066206;28;20123;-64
2022/06/23 05:47:50;;;;;;;13.00;7.10;;;18.70;95.00;;;;;;5057685;28;20032;-73
2022/06/23 05:50:21;;;;;;;11.73;7.55;;;18.80;95.00;;;;;;5071125;28;20039;-65
2022/06/23 05:53:01;;;;;;;13.75;7.43;;;18.70;95.10;;;;;;5069702;28;20032;-65
2022/06/23 05:55:46;;;;;;;12.82;7.50;;;18.80;95.30;;;;;;5069258;28;20051;-66
2022/06/23 05:58:20;;;;;;;11.93;7.03;;;18.90;95.30;;;;;;5071778;28;20109;-66
2022/06/23 06:01:06;;;;;;;11.68;6.72;;;18.80;95.40;;;;;;5065580;28;20025;-66
2022/06/23 06:03:39;;;;;;;14.90;7.03;;;18.90;95.30;;;;;;5060324;28;20503;-66
2022/06/23 06:06:06;;;;;;;11.88;7.50;;;18.90;95.20;;;;;;5064261;28;20035;-66
2022/06/23 06:09:35;;;;;;;10.38;6.97;;;18.90;95.30;;;;;;5060761;28;20063;-66
2022/06/23 06:11:21;;;;;;;8.85;5.90;;;19.00;95.40;;;;;;5061476;28;20029;-65
2022/06/23 06:13:47;;;;;;;9.65;5.30;;;19.00;95.00;;;;;;5070023;28;20099;-66
2022/06/23 06:16:12;;;;;;;10.50;6.57;;;19.00;94.60;;;;;;5060571;28;20140;-65
2022/06/23 06:18:41;;;;;;;10.25;7.03;;;19.00;94.50;;;;;;5068589;28;20025;-65
2022/06/23 06:21:11;;;;;;;8.85;5.20;;;19.10;94.70;;;;;;5070298;28;20029;-66
2022/06/23 06:24:15;;;;;;;9.73;5.70;;;19.10;94.60;;;;;;5068569;28;20490;-65
2022/06/23 06:26:45;;;;;;;11.13;6.72;;;19.20;94.30;;;;;;5049391;28;20072;-65
2022/06/23 06:29:19;;;;;;;10.75;7.18;;;19.20;94.30;;;;;;5070253;28;20111;-66
2022/06/23 06:31:50;;;;;;;12.32;6.72;;;19.30;94.30;;;;;;5070585;28;20480;-66
2022/06/23 06:34:19;;;;;;;11.02;6.85;;;19.30;94.30;;;;;;5059424;28;20033;-66
2022/06/23 06:36:47;;;;;;;10.23;6.35;;;19.30;94.20;;;;;;5068916;28;20037;-66
2022/06/23 06:39:30;;;;;;;11.38;6.88;;;19.40;94.30;;;;;;5069931;28;20024;-66
2022/06/23 06:42:12;;;;;;;11.05;6.35;;;19.40;94.30;;;;;;5073805;28;20391;-66
2022/06/23 06:44:44;;;;;;;10.03;6.77;;;19.50;94.30;;;;;;5068297;28;20029;-65
2022/06/23 06:47:22;;;;;;;12.05;6.45;;;19.60;94.00;;;;;;5067391;28;20036;-65
2022/06/23 06:49:49;;;;;;;8.80;6.47;;;19.60;93.90;;;;;;5062003;28;20581;-66
2022/06/23 06:52:16;;;;;;;10.75;5.85;;;19.60;93.80;;;;;;5073290;28;20040;-65
2022/06/23 06:54:44;;;;;;;11.48;7.32;;;19.70;93.40;;;;;;5074718;28;20063;-66
2022/06/23 06:57:18;;;;;;;8.65;5.78;;;19.70;93.50;;;;;;5060337;28;20120;-66
2022/06/23 07:00:00;;;;;;;21.00;6.90;;;19.80;93.40;;;;;;5074577;28;20036;-66
2022/06/23 07:02:36;;;;;;;12.30;6.40;;;19.80;93.30;;;;;;5074189;28;20060;-66
2022/06/23 07:05:26;;;;;;;7.32;5.45;;;19.90;93.20;;;;;;5060756;28;20032;-66
2022/06/23 07:08:01;;;;;;;11.48;6.72;;;20.00;93.50;;;;;;5063760;28;20364;-66
2022/06/23 07:10:44;;;;;;;9.63;5.72;;;20.00;93.40;;;;;;5056165;28;20487;-66
2022/06/23 07:13:24;;;;;;;7.95;5.68;;;20.10;93.00;;;;;;5053961;28;20043;-66
2022/06/23 07:15:56;;;;;;;11.27;6.10;;;20.10;92.80;;;;;;5074080;28;20045;-65
2022/06/23 07:18:38;;;;;;;11.57;6.63;;;20.20;92.80;;;;;;5069923;28;20047;-66
2022/06/23 07:21:22;;;;;;;10.32;6.88;;;20.20;92.90;;;;;;5066233;28;20043;-66
2022/06/23 07:24:12;;;;;;;19.80;7.50;;;20.30;92.90;;;;;;5055241;28;20412;-64
2022/06/23 07:26:41;;;;;;;14.50;6.35;;;20.30;92.90;;;;;;5066616;28;20392;-65
2022/06/23 07:29:25;;;;;;;10.15;6.50;;;20.40;92.90;;;;;;5069131;28;20777;-66
2022/06/23 07:32:32;;;;;;;12.68;6.07;;;20.40;93.00;;;;;;5065733;28;20380;-66
2022/06/23 07:35:40;;;;;;;13.13;6.95;;;20.60;92.90;;;;;;5040480;28;20041;-66
2022/06/23 07:38:28;;;;;;;15.85;7.03;;;20.50;93.10;;;;;;5051977;28;20045;-66
2022/06/23 07:41:14;;;;;;;12.68;6.82;;;20.70;93.10;;;;;;5066965;28;20029;-66
2022/06/23 07:43:58;;;;;;;9.80;6.57;;;20.70;93.00;;;;;;5068547;28;20033;-66
2022/06/23 07:46:24;;;;;;;10.43;5.32;;;20.70;93.10;;;;;;5059173;28;20480;-65
2022/06/23 07:48:49;;;;;;;11.13;6.60;;;20.80;92.90;;;;;;5070950;28;20028;-65
2022/06/23 07:51:18;;;;;;;8.60;6.00;;;20.90;92.90;;;;;;5059039;28;20021;-66
2022/06/23 07:53:50;;;;;;;11.70;7.15;;;20.80;93.00;;;;;;5070268;28;20106;-66
2022/06/23 07:56:19;;;;;;;11.00;6.60;;;20.90;93.20;;;;;;5058357;28;20041;-66
2022/06/23 07:58:48;;;;;;;7.60;4.80;;;21.00;93.30;;;;;;5062285;28;20029;-66
2022/06/23 08:01:24;;;;;;;8.63;5.50;;;21.00;93.00;;;;;;5052793;28;20037;-66
2022/06/23 08:04:05;;;;;;;12.38;6.10;;;21.20;92.50;;;;;;5068114;28;20056;-66
2022/06/23 08:06:33;;;;;;;9.48;5.63;;;21.20;92.50;;;;;;5061271;28;20068;-65
2022/06/23 08:09:04;;;;;;;10.27;5.72;;;21.30;92.60;;;;;;5052901;28;20496;-66
2022/06/23 08:14:29;;;;;;;11.23;5.05;;;21.40;92.30;;;;;;5061647;28;20120;-66
2022/06/23 08:16:55;;;;;;;9.85;5.57;;;21.50;92.10;;;;;;5072201;28;20033;-65
2022/06/23 08:19:40;;;;;;;9.70;5.90;;;21.60;92.10;;;;;;5073463;28;20495;-65
2022/06/23 08:22:25;;;;;;;7.90;4.97;;;21.60;91.50;;;;;;5052848;28;20052;-66
2022/06/23 08:24:56;;;;;;;8.15;4.90;;;21.60;91.50;;;;;;5068419;28;20647;-66
2022/06/23 08:27:28;;;;;;;9.40;5.05;;;21.70;91.40;;;;;;5063784;28;20052;-65
2022/06/23 08:30:00;;;;;;;7.78;5.22;;;21.80;91.30;;;;;;5052105;28;20484;-66
2022/06/23 08:32:29;;;;;;;12.80;4.80;;;21.90;91.30;;;;;;5065315;28;20495;-65
2022/06/23 08:35:08;;;;;;;8.35;4.55;;;21.90;91.00;;;;;;5071387;28;20036;-66
2022/06/23 08:37:43;;;;;;;8.45;4.82;;;22.00;90.90;;;;;;5070550;28;20051;-66
2022/06/23 08:40:50;;;;;;;8.52;6.00;;;22.00;91.00;;;;;;5053498;28;20033;-66
2022/06/23 08:43:19;;;;;;;12.10;5.45;;;22.10;91.10;;;;;;5045856;28;20112;-65
2022/06/23 08:46:01;;;;;;;15.40;7.22;;;22.20;91.40;;;;;;5065999;28;20097;-66
2022/06/23 08:48:37;;;;;;;10.43;5.78;;;22.20;91.40;;;;;;5053894;28;20457;-65
2022/06/23 08:51:14;;;;;;;13.85;6.47;;;22.20;91.70;;;;;;5071125;28;20077;-65
2022/06/23 08:54:07;;;;;;;10.23;5.82;;;22.30;91.40;;;;;;5070381;28;20062;-66
2022/06/23 08:57:16;;;;;;;8.88;5.53;;;22.30;91.50;;;;;;5052511;28;20400;-66
2022/06/23 08:59:56;;;;;;;12.20;5.25;;;22.40;91.50;;;;;;5047168;28;20047;-66
2022/06/23 09:02:31;;;;;;;13.32;6.30;;;22.40;91.50;;;;;;5071155;28;20064;-66
2022/06/23 09:05:23;;;;;;;13.20;6.85;;;22.50;91.50;;;;;;5052967;28;20457;-66
2022/06/23 09:07:57;;;;;;;19.52;8.23;;;22.50;91.40;;;;;;5051842;28;20040;-66
2022/06/23 09:10:47;;;;;;;11.30;6.15;;;22.60;91.40;;;;;;5066734;28;20151;-65
2022/06/23 09:13:37;;;;;;;11.65;6.80;;;22.70;91.60;;;;;;5072077;28;20037;-66
2022/06/23 09:16:13;;;;;;;13.00;6.25;;;22.70;91.80;;;;;;5072360;28;20044;-66
2022/06/23 09:19:27;;;;;;;12.35;6.70;;;22.80;91.70;;;;;;5066388;28;20074;-66
2022/06/23 09:22:07;;;;;;;8.65;5.30;;;22.90;91.60;;;;;;5031560;28;20083;-66
2022/06/23 09:25:12;;;;;;;7.47;4.78;;;22.90;91.50;;;;;;5070870;28;20354;-66
2022/06/23 09:28:13;;;;;;;13.48;6.10;;;23.00;91.30;;;;;;5063085;28;20380;-66
2022/06/23 09:30:56;;;;;;;11.60;6.07;;;23.10;91.10;;;;;;5052469;28;20037;-66
2022/06/23 09:33:36;;;;;;;9.70;5.38;;;23.10;91.20;;;;;;5069280;28;20028;-66
2022/06/23 09:36:32;;;;;;;9.23;4.95;;;23.20;91.00;;;;;;5070613;28;20480;-65
2022/06/23 09:39:01;;;;;;;8.05;4.13;;;23.20;90.90;;;;;;5051651;28;20591;-65
2022/06/23 09:41:41;;;;;;;8.05;4.82;;;23.30;90.60;;;;;;5051488;28;20032;-66
2022/06/23 09:44:39;;;;;;;11.10;5.20;;;23.30;90.70;;;;;;5064625;28;20119;-66
2022/06/23 09:47:24;;;;;;;10.82;4.57;;;23.40;90.70;;;;;;5053819;28;20098;-66
2022/06/23 09:50:18;;;;;;;8.65;3.50;;;23.40;90.40;;;;;;5063583;28;20032;-65
2022/06/23 09:53:02;;;;;;;8.05;3.95;;;23.50;89.90;;;;;;5066456;28;20028;-64
2022/06/23 09:55:48;;;;;;;7.82;3.90;;;23.50;89.20;;;;;;5068934;28;20032;-64
2022/06/23 09:58:49;;;;;;;7.75;4.47;;;23.60;88.90;;;;;;5071265;28;20086;-65
2022/06/23 10:01:25;;;;;;;8.23;3.95;;;23.70;88.80;;;;;;5065969;28;20380;-65
2022/06/23 10:04:02;;;;;;;8.27;4.28;;;23.80;88.40;;;;;;5065140;28;20082;-64
2022/06/23 10:06:36;;;;;;;9.48;3.80;;;23.80;87.70;;;;;;5066012;28;20472;-64
2022/06/23 10:09:33;;;;;;;6.75;3.65;;;23.90;87.70;;;;;;5065352;28;20069;-64
2022/06/23 10:12:17;;;;;;;7.35;3.65;;;24.00;87.60;;;;;;5069558;28;20358;-64
2022/06/23 10:15:01;;;;;;;15.40;4.20;;;24.00;88.00;;;;;;5070431;28;20526;-65
2022/06/23 10:18:17;;;;;;;7.50;3.58;;;24.10;86.90;;;;;;5071975;28;20036;-66
2022/06/23 10:20:51;;;;;;;7.65;4.03;;;24.10;86.70;;;;;;5048263;28;20029;-66
2022/06/23 10:23:38;;;;;;;7.07;3.17;;;24.20;85.80;;;;;;5067512;28;20039;-66
2022/06/23 10:26:12;;;;;;;5.38;2.67;;;24.30;85.80;;;;;;5067861;28;20480;-65
2022/06/23 10:28:46;;;;;;;6.13;2.97;;;24.30;85.90;;;;;;5062789;28;20080;-65
2022/06/23 10:31:39;;;;;;;10.07;4.00;;;24.40;85.30;;;;;;5062332;28;20392;-65
2022/06/23 10:34:25;;;;;;;11.20;3.78;;;24.50;85.00;;;;;;5061505;28;20037;-65
2022/06/23 10:37:18;;;;;;;8.07;3.88;;;24.50;84.60;;;;;;5067263;28;20438;-65
2022/06/23 10:39:59;;;;;;;7.10;3.15;;;24.60;84.20;;;;;;5064541;28;20115;-65
2022/06/23 10:42:34;;;;;;;7.55;3.08;;;24.60;84.50;;;;;;5069410;28;20059;-65
2022/06/23 10:45:29;;;;;;;7.45;3.83;;;24.70;83.90;;;;;;5065336;28;20090;-65
2022/06/23 10:48:10;;;;;;;11.07;3.00;;;24.70;83.40;;;;;;5059837;28;20086;-65
2022/06/23 10:51:03;;;;;;;10.98;2.47;;;24.80;83.30;;;;;;5060689;28;20115;-65
2022/06/23 10:53:41;;;;;;;3.87;2.20;;;24.90;83.80;;;;;;5070981;28;20035;-65
2022/06/23 10:56:21;;;;;;;5.43;2.42;;;24.90;82.30;;;;;;5065332;28;20036;-65
2022/06/23 10:58:52;;;;;;;7.50;2.28;;;24.90;80.60;;;;;;5073607;28;20522;-65
2022/06/23 11:01:33;;;;;;;6.35;2.67;;;25.00;78.50;;;;;;5073554;28;20051;-65
2022/06/23 11:04:04;;;;;;;17.23;2.63;;;25.10;79.90;;;;;;5064078;28;20435;-65
2022/06/23 11:06:39;;;;;;;4.70;2.10;;;25.20;79.20;;;;;;5062260;28;20063;-65
2022/06/23 11:09:31;;;;;;;5.45;2.05;;;25.20;79.90;;;;;;5071862;28;20055;-66
2022/06/23 11:12:34;;;;;;;6.15;2.28;;;25.30;79.20;;;;;;5069935;28;20025;-65
2022/06/23 11:15:19;;;;;;;7.32;1.90;;;25.40;78.80;;;;;;5062176;28;20067;-65
2022/06/23 11:18:19;;;;;;;5.50;2.13;;;25.50;78.50;;;;;;5065682;28;20499;-65
2022/06/23 11:21:09;;;;;;;4.78;1.95;;;25.50;78.70;;;;;;5061984;28;20025;-64
2022/06/23 11:24:02;;;;;;;6.32;2.40;;;25.70;78.10;;;;;;5072977;28;20032;-65
2022/06/23 11:26:42;;;;;;;4.43;2.22;;;25.70;77.30;;;;;;5065812;28;20177;-65
2022/06/23 11:29:25;;;;;;;4.68;1.92;;;25.80;76.40;;;;;;5067534;28;20024;-65
2022/06/23 11:32:23;;;;;;;2.38;1.77;;;25.90;76.40;;;;;;5070790;28;20024;-65
2022/06/23 11:35:36;;;;;;;6.60;2.42;;;25.90;76.50;;;;;;5057903;28;20043;-65
2022/06/23 11:38:36;;;;;;;5.60;2.05;;;26.10;77.40;;;;;;5053408;28;20052;-65
2022/06/23 11:41:23;;;;;;;5.65;2.25;;;26.10;77.80;;;;;;5072677;28;20044;-65
2022/06/23 11:44:06;;;;;;;7.57;2.00;;;26.20;77.40;;;;;;5058448;28;20117;-65
2022/06/23 11:46:38;;;;;;;6.72;2.13;;;26.30;76.10;;;;;;5066065;28;20090;-66
2022/06/23 11:49:06;;;;;;;5.30;2.25;;;26.30;76.60;;;;;;5069020;28;20037;-66
2022/06/23 11:51:38;;;;;;;4.80;2.20;;;26.30;75.70;;;;;;5071222;28;20044;-65
2022/06/23 11:54:28;;;;;;;9.32;2.30;;;26.40;76.00;;;;;;5066030;28;20036;-65
2022/06/23 11:57:14;;;;;;;4.28;2.17;;;26.50;75.70;;;;;;5069081;28;20047;-66
2022/06/23 12:00:02;;;;;;;6.03;2.38;;;26.50;76.30;;;;;;5071828;28;20032;-65
2022/06/23 12:03:04;;;;;;;4.10;2.20;;;26.60;75.40;;;;;;5072072;28;20032;-65
2022/06/23 12:05:40;;;;;;;7.57;2.22;;;26.70;75.20;;;;;;5040697;28;20448;-65
2022/06/23 12:08:23;;;;;;;5.70;2.00;;;26.70;75.50;;;;;;5064977;28;20028;-66
2022/06/23 12:10:48;;;;;;;3.80;1.92;;;26.80;74.90;;;;;;5060805;28;20165;-66
2022/06/23 12:13:14;;;;;;;4.45;1.92;;;26.90;74.70;;;;;;5070774;28;20040;-66
2022/06/23 12:15:49;;;;;;;14.18;2.40;;;26.90;74.20;;;;;;5072734;28;20024;-65
2022/06/23 12:18:24;;;;;;;6.93;1.98;;;27.00;74.00;;;;;;5071177;28;20035;-65
2022/06/23 12:21:01;;;;;;;4.03;1.98;;;27.10;74.90;;;;;;5061917;28;20388;-65
2022/06/23 12:23:32;;;;;;;11.02;2.15;;;27.10;74.80;;;;;;5071680;28;20546;-65
2022/06/23 12:26:16;;;;;;;8.95;2.28;;;27.10;74.40;;;;;;5069590;28;20491;-65
2022/06/23 12:28:54;;;;;;;5.43;2.08;;;27.20;74.00;;;;;;5065165;28;20025;-65
2022/06/23 12:31:34;;;;;;;6.25;2.00;;;27.30;72.90;;;;;;5066177;28;20036;-65
2022/06/23 12:34:11;;;;;;;3.13;1.80;;;27.30;71.80;;;;;;5062947;28;20044;-65
2022/06/23 12:37:02;;;;;;;8.13;2.13;;;27.30;72.00;;;;;;5064574;28;20040;-65
2022/06/23 12:39:57;;;;;;;5.47;2.00;;;27.40;71.90;;;;;;5068199;28;20040;-66
2022/06/23 12:42:28;;;;;;;4.00;1.85;;;27.50;70.90;;;;;;5070659;28;20528;-70
2022/06/23 12:45:12;;;;;;;3.20;1.92;;;27.50;71.40;;;;;;5068289;28;20032;-66
2022/06/23 12:48:02;;;;;;;4.38;1.98;;;27.60;71.20;;;;;;5068106;28;20050;-67
2022/06/23 12:50:36;;;;;;;17.55;2.70;;;27.70;71.60;;;;;;5062861;28;20036;-66
2022/06/23 12:53:05;;;;;;;4.15;2.20;;;27.80;72.00;;;;;;5062106;28;20062;-67
2022/06/23 12:56:04;;;;;;;3.97;2.13;;;27.80;72.40;;;;;;5064880;28;20028;-66
2022/06/23 12:58:47;;;;;;;2.78;1.75;;;27.90;72.00;;;;;;5065251;28;20119;-67
2022/06/23 13:01:21;;;;;;;6.30;2.15;;;27.90;71.80;;;;;;5061349;28;20162;-66
2022/06/23 13:03:56;;;;;;;3.97;2.20;;;27.90;72.20;;;;;;5061576;28;20037;-66
2022/06/23 13:06:32;;;;;;;9.02;2.20;;;28.00;71.80;;;;;;5065269;28;20094;-67
2022/06/23 13:09:23;;;;;;;5.68;2.08;;;28.00;71.10;;;;;;5056115;28;20040;-66
2022/06/23 13:12:07;;;;;;;2.97;1.58;;;28.10;70.30;;;;;;5065945;28;20033;-66
2022/06/23 13:14:42;;;;;;;8.13;2.00;;;28.20;70.60;;;;;;5065053;28;20038;-66
2022/06/23 13:17:26;;;;;;;4.15;2.03;;;28.30;70.60;;;;;;5065700;28;20111;-67
2022/06/23 13:20:25;;;;;;;6.55;2.00;;;28.30;70.70;;;;;;5063459;28;20029;-66
2022/06/23 13:22:59;;;;;;;3.13;1.85;;;28.40;72.40;;;;;;5063771;28;20035;-66
2022/06/23 13:25:32;;;;;;;9.40;1.80;;;28.40;70.20;;;;;;5063173;28;20480;-66
2022/06/23 13:27:58;;;;;;;6.55;1.88;;;28.50;71.20;;;;;;5066843;28;20021;-66
2022/06/23 13:30:28;;;;;;;4.47;2.22;;;28.50;70.70;;;;;;5064948;28;20873;-66
2022/06/23 13:33:47;;;;;;;6.57;1.90;;;28.60;70.90;;;;;;5065835;28;20488;-66
2022/06/23 13:36:40;;;;;;;3.38;1.80;;;28.60;70.30;;;;;;5042143;28;20064;-67
2022/06/23 13:39:18;;;;;;;4.80;1.85;;;28.60;70.10;;;;;;5061584;28;20128;-68
2022/06/23 13:42:09;;;;;;;4.57;2.03;;;28.70;67.90;;;;;;5062943;28;20029;-66
2022/06/23 13:44:56;;;;;;;3.67;1.80;;;28.80;68.30;;;;;;5065075;28;20040;-67
2022/06/23 13:47:31;;;;;;;4.93;1.73;;;28.80;70.00;;;;;;5061499;28;20139;-66
2022/06/23 13:50:28;;;;;;;4.30;2.20;;;28.80;68.70;;;;;;5062767;28;20039;-66
2022/06/23 13:53:00;;;;;;;5.68;1.92;;;28.90;68.10;;;;;;5063727;28;20028;-66
2022/06/23 13:55:37;;;;;;;11.55;2.00;;;29.00;67.60;;;;;;5064357;28;20039;-67
2022/06/23 13:58:07;;;;;;;4.28;1.85;;;29.00;67.60;;;;;;5059449;28;19916;-66